Free0maverick — A8GH3 — position and weather

sailwx.info

Track history (hours):
 
Tides and Currents Weather Stations Pressure Air Temp Water Temp Dewpoint Dewpoint Depression Visibility Wind Speed Wind Dir Waves Ship Positions

Free0maverick

Last reported at 2018-Apr-28 12:42 UTC. Time now 2018-May-23 07:17 UTC.
Position N 32°60' W 118°06'.
Warning: this ship's position is 24 days out of date.

Length 169 m.

Type: Cargo ship. MMSI: 636013999.

Date/timePositionNaut miles runAvg speedWind from/ knotsBaromVisibWave heightAir tempDewpointWater temp
2018-Apr-28 12:42N 32°60' W 118°06'211.3
2018-Apr-28 12:30N 33°02' W 118°06'3710.9
2018-Apr-28 09:05N 33°39' W 118°12'1 9.6
2018-Apr-28 09:00N 33°40' W 118°11'4 7.6
2018-Apr-28 08:30N 33°44' W 118°11'1 1.0
2018-Apr-28 07:59N 33°44' W 118°12'0 0.0
2018-Apr-28 07:29N 33°44' W 118°12'0 0.0
2018-Apr-28 06:59N 33°44' W 118°12'0 0.0
2018-Apr-28 06:29N 33°44' W 118°12'0 0.0
2018-Apr-28 05:56N 33°44' W 118°12'0 0.0
2018-Apr-28 05:29N 33°44' W 118°12'0 0.0
2018-Apr-28 04:59N 33°44' W 118°12'0 0.0
2018-Apr-28 04:29N 33°44' W 118°12'0 0.0
2018-Apr-28 03:59N 33°44' W 118°12'0 0.0
2018-Apr-28 03:29N 33°44' W 118°12'0 0.0
2018-Apr-28 02:50N 33°44' W 118°12'0 0.0
2018-Apr-28 02:29N 33°44' W 118°12'0 0.1
2018-Apr-28 01:59N 33°44' W 118°12'0 0.1
2018-Apr-28 01:29N 33°44' W 118°12'0 0.0
2018-Apr-28 00:59N 33°44' W 118°12'0 0.0
2018-Apr-28 00:29N 33°44' W 118°12'0 0.0
2018-Apr-27 23:59N 33°44' W 118°12'0 0.0
2018-Apr-27 23:29N 33°44' W 118°12'0 0.0
2018-Apr-27 22:59N 33°44' W 118°12'0 0.0
2018-Apr-27 22:26N 33°44' W 118°12'0 0.0
2018-Apr-27 21:59N 33°44' W 118°12'0 0.0
2018-Apr-27 21:29N 33°44' W 118°12'0 0.0
2018-Apr-27 20:59N 33°44' W 118°12'0 0.0
2018-Apr-27 20:29N 33°44' W 118°12'0 0.0
2018-Apr-27 19:59N 33°44' W 118°12'0 0.0
2018-Apr-27 19:29N 33°44' W 118°12'0 0.1
2018-Apr-27 18:59N 33°44' W 118°12'0 0.2
2018-Apr-27 18:29N 33°44' W 118°12'0 0.1
2018-Apr-27 17:59N 33°44' W 118°12'0 0.0
2018-Apr-27 17:29N 33°44' W 118°12'0 0.1
2018-Apr-27 16:59N 33°44' W 118°12'0 0.1
2018-Apr-27 16:30N 33°44' W 118°12'2 3.4
2018-Apr-27 16:00N 33°42' W 118°11'3 5.9
2018-Apr-27 15:31N 33°39' W 118°10'510.0
2018-Apr-27 15:01N 33°35' W 118°09'1911.9
2018-Apr-27 13:25N 33°16' W 118°02'512.2
2018-Apr-27 13:00N 33°12' W 118°01'612.4
2018-Apr-27 12:30N 33°06' W 117°59'612.5
2018-Apr-27 12:01N 32°60' W 117°56'612.2
2018-Apr-27 11:31N 32°54' W 117°54'612.0
2018-Apr-27 11:00N 32°48' W 117°52'612.0
2018-Apr-27 10:30N 32°42' W 117°50'612.0
2018-Apr-27 10:00N 32°36' W 117°49'612.0
2018-Apr-27 09:30N 32°31' W 117°47'612.1
2018-Apr-27 09:00N 32°25' W 117°45'612.2
2018-Apr-27 08:30N 32°19' W 117°42'1111.9
2018-Apr-27 07:34N 32°09' W 117°38'111.9
2018-Apr-27 07:27N 32°07' W 117°37'20910.9
2018-Apr-26 12:15N 28°49' W 116°21'7211.5
2018-Apr-26 06:00N 27°46' W 115°41'611.3
2018-Apr-26 05:28N 27°41' W 115°37'611.7
2018-Apr-26 04:59N 27°37' W 115°33'812.2
2018-Apr-26 04:17N 27°30' W 115°27'412.3
2018-Apr-26 03:55N 27°26' W 115°24'512.3
2018-Apr-26 03:29N 27°22' W 115°21'612.1
2018-Apr-26 02:58N 27°17' W 115°16'2412.2
2018-Apr-26 00:58N 26°58' W 114°59'2711.6
2018-Apr-25 22:40N 26°37' W 114°40'  
Track history (hours):
 
Tides and Currents Weather Stations Pressure Air Temp Water Temp Dewpoint Dewpoint Depression Visibility Wind Speed Wind Dir Waves Ship Positions

Free0maverick

Last reported at 2018-Apr-28 12:42 UTC. Time now 2018-May-23 07:17 UTC.
Position N 32°60' W 118°06'.
Warning: this ship's position is 24 days out of date.

Length 169 m.

Type: Cargo ship. MMSI: 636013999.

Date/timePositionNaut miles runAvg speedWind from/ knotsBaromVisibWave heightAir tempDewpointWater temp
2018-Apr-28 12:42N 32°60' W 118°06'211.3
2018-Apr-28 12:30N 33°02' W 118°06'3710.9
2018-Apr-28 09:05N 33°39' W 118°12'1 9.6
2018-Apr-28 09:00N 33°40' W 118°11'4 7.6
2018-Apr-28 08:30N 33°44' W 118°11'1 1.0
2018-Apr-28 07:59N 33°44' W 118°12'0 0.0
2018-Apr-28 07:29N 33°44' W 118°12'0 0.0
2018-Apr-28 06:59N 33°44' W 118°12'0 0.0
2018-Apr-28 06:29N 33°44' W 118°12'0 0.0
2018-Apr-28 05:56N 33°44' W 118°12'0 0.0
2018-Apr-28 05:29N 33°44' W 118°12'0 0.0
2018-Apr-28 04:59N 33°44' W 118°12'0 0.0
2018-Apr-28 04:29N 33°44' W 118°12'0 0.0
2018-Apr-28 03:59N 33°44' W 118°12'0 0.0
2018-Apr-28 03:29N 33°44' W 118°12'0 0.0
2018-Apr-28 02:50N 33°44' W 118°12'0 0.0
2018-Apr-28 02:29N 33°44' W 118°12'0 0.1
2018-Apr-28 01:59N 33°44' W 118°12'0 0.1
2018-Apr-28 01:29N 33°44' W 118°12'0 0.0
2018-Apr-28 00:59N 33°44' W 118°12'0 0.0
2018-Apr-28 00:29N 33°44' W 118°12'0 0.0
2018-Apr-27 23:59N 33°44' W 118°12'0 0.0
2018-Apr-27 23:29N 33°44' W 118°12'0 0.0
2018-Apr-27 22:59N 33°44' W 118°12'0 0.0
2018-Apr-27 22:26N 33°44' W 118°12'0 0.0
2018-Apr-27 21:59N 33°44' W 118°12'0 0.0
2018-Apr-27 21:29N 33°44' W 118°12'0 0.0
2018-Apr-27 20:59N 33°44' W 118°12'0 0.0
2018-Apr-27 20:29N 33°44' W 118°12'0 0.0
2018-Apr-27 19:59N 33°44' W 118°12'0 0.0
2018-Apr-27 19:29N 33°44' W 118°12'0 0.1
2018-Apr-27 18:59N 33°44' W 118°12'0 0.2
2018-Apr-27 18:29N 33°44' W 118°12'0 0.1
2018-Apr-27 17:59N 33°44' W 118°12'0 0.0
2018-Apr-27 17:29N 33°44' W 118°12'0 0.1
2018-Apr-27 16:59N 33°44' W 118°12'0 0.1
2018-Apr-27 16:30N 33°44' W 118°12'2 3.4
2018-Apr-27 16:00N 33°42' W 118°11'3 5.9
2018-Apr-27 15:31N 33°39' W 118°10'510.0
2018-Apr-27 15:01N 33°35' W 118°09'1911.9
2018-Apr-27 13:25N 33°16' W 118°02'512.2
2018-Apr-27 13:00N 33°12' W 118°01'612.4
2018-Apr-27 12:30N 33°06' W 117°59'612.5
2018-Apr-27 12:01N 32°60' W 117°56'612.2
2018-Apr-27 11:31N 32°54' W 117°54'612.0
2018-Apr-27 11:00N 32°48' W 117°52'612.0
2018-Apr-27 10:30N 32°42' W 117°50'612.0
2018-Apr-27 10:00N 32°36' W 117°49'612.0
2018-Apr-27 09:30N 32°31' W 117°47'612.1
2018-Apr-27 09:00N 32°25' W 117°45'612.2
2018-Apr-27 08:30N 32°19' W 117°42'1111.9
2018-Apr-27 07:34N 32°09' W 117°38'111.9
2018-Apr-27 07:27N 32°07' W 117°37'20910.9
2018-Apr-26 12:15N 28°49' W 116°21'7211.5
2018-Apr-26 06:00N 27°46' W 115°41'611.3
2018-Apr-26 05:28N 27°41' W 115°37'611.7
2018-Apr-26 04:59N 27°37' W 115°33'812.2
2018-Apr-26 04:17N 27°30' W 115°27'412.3
2018-Apr-26 03:55N 27°26' W 115°24'512.3
2018-Apr-26 03:29N 27°22' W 115°21'612.1
2018-Apr-26 02:58N 27°17' W 115°16'2412.2
2018-Apr-26 00:58N 26°58' W 114°59'2711.6
2018-Apr-25 22:40N 26°37' W 114°40'  

Dump ship's entire track history